createdAt,value
2022-10-22T00:00:02.858Z,88.88
2022-10-22T00:02:29.284Z,89.63
2022-10-22T00:04:57.046Z,89.25
2022-10-22T00:07:23.731Z,89.31
2022-10-22T00:09:50.206Z,90.00
2022-10-22T00:12:17.462Z,89.44
2022-10-22T00:14:44.085Z,88.75
2022-10-22T00:17:11.471Z,89.42
2022-10-22T00:19:38.951Z,89.05
2022-10-22T00:22:05.734Z,89.65
2022-10-22T00:24:33.774Z,89.15
2022-10-22T00:27:00.310Z,89.14
2022-10-22T00:29:26.699Z,89.43
2022-10-22T00:31:53.143Z,89.55
2022-10-22T00:34:22.956Z,89.43
2022-10-22T00:36:50.307Z,89.17
2022-10-22T00:39:18.935Z,89.17
2022-10-22T00:41:47.474Z,89.38
2022-10-22T00:44:51.396Z,89.39
2022-10-22T00:47:18.793Z,89.50
2022-10-22T00:49:46.890Z,89.60
2022-10-22T00:52:14.252Z,89.47
2022-10-22T00:54:42.354Z,89.48
2022-10-22T00:57:09.371Z,89.81
2022-10-22T00:59:36.784Z,89.22
2022-10-22T01:02:04.460Z,89.80
2022-10-22T01:04:30.804Z,89.59
2022-10-22T01:06:57.203Z,89.42
2022-10-22T01:09:59.400Z,89.93
2022-10-22T01:13:02.470Z,89.75
2022-10-22T01:15:58.243Z,89.77
2022-10-22T01:18:34.937Z,89.75
2022-10-22T01:21:20.482Z,89.78
2022-10-22T01:24:19.294Z,89.96
2022-10-22T01:27:10.362Z,89.50
2022-10-22T01:29:50.675Z,89.89
2022-10-22T01:32:21.362Z,90.00
2022-10-22T01:34:52.918Z,89.37
2022-10-22T01:37:22.918Z,89.54
2022-10-22T01:39:50.548Z,89.66
2022-10-22T01:42:16.940Z,89.30
2022-10-22T01:44:44.564Z,89.66
2022-10-22T01:47:13.913Z,89.87
2022-10-22T01:49:49.467Z,89.18
2022-10-22T01:52:30.871Z,89.76
2022-10-22T01:55:21.084Z,90.17
2022-10-22T01:58:00.036Z,90.08
2022-10-22T02:00:26.553Z,90.07
2022-10-22T02:03:03.436Z,89.84
2022-10-22T02:05:37.371Z,90.11
2022-10-22T02:08:14.611Z,90.11
2022-10-22T02:10:44.790Z,89.95
2022-10-22T02:13:20.474Z,90.44
2022-10-22T02:15:51.222Z,90.10
2022-10-22T02:18:21.824Z,89.47
2022-10-22T02:20:49.506Z,89.79
2022-10-22T02:23:16.318Z,89.50
2022-10-22T02:25:48.555Z,90.03
2022-10-22T02:28:32.078Z,89.87
2022-10-22T02:31:15.008Z,90.02
2022-10-22T02:33:47.201Z,89.74
2022-10-22T02:36:16.328Z,90.28
2022-10-22T02:38:43.310Z,89.83
2022-10-22T02:41:10.031Z,89.82
2022-10-22T02:43:42.652Z,89.92
2022-10-22T02:46:10.138Z,90.45
2022-10-22T02:48:37.045Z,90.42
2022-10-22T02:51:03.828Z,90.19
2022-10-22T02:53:30.160Z,89.91
2022-10-22T02:55:56.587Z,90.04
2022-10-22T02:58:22.921Z,89.95
2022-10-22T03:00:49.357Z,90.33
2022-10-22T03:03:15.780Z,89.96
2022-10-22T03:05:42.142Z,90.32
2022-10-22T03:08:08.713Z,90.33
2022-10-22T03:10:35.213Z,90.00
2022-10-22T03:13:01.591Z,90.61
2022-10-22T03:17:59.246Z,90.26
2022-10-22T03:20:25.649Z,89.95
2022-10-22T03:22:52.688Z,89.97
2022-10-22T03:25:22.412Z,90.02
2022-10-22T03:27:51.531Z,90.50
2022-10-22T03:30:18.754Z,90.28
2022-10-22T03:32:45.230Z,90.00
2022-10-22T03:35:11.589Z,90.02
2022-10-22T03:37:39.289Z,90.41
2022-10-22T03:40:07.572Z,90.06
2022-10-22T03:42:34.249Z,90.13
2022-10-22T03:45:00.607Z,89.95
2022-10-22T03:47:27.486Z,90.50
2022-10-22T03:49:53.948Z,90.72
2022-10-22T03:52:20.431Z,90.25
2022-10-22T03:54:46.883Z,90.67
2022-10-22T03:57:13.311Z,90.72
2022-10-22T03:59:45.118Z,89.84
2022-10-22T04:02:13.046Z,90.71
2022-10-22T04:04:39.800Z,90.87
2022-10-22T04:07:07.379Z,90.70
2022-10-22T04:09:34.693Z,90.76
2022-10-22T04:12:01.329Z,90.82
2022-10-22T04:14:27.828Z,90.84
2022-10-22T04:16:54.412Z,90.63
2022-10-22T04:19:20.796Z,90.72
2022-10-22T04:21:47.141Z,90.56
2022-10-22T04:24:14.168Z,90.77
2022-10-22T04:26:40.604Z,90.75
2022-10-22T04:29:10.550Z,90.43
2022-10-22T04:31:39.933Z,90.51
2022-10-22T04:34:06.312Z,90.09
2022-10-22T04:36:33.914Z,90.53
2022-10-22T04:39:01.080Z,90.94
2022-10-22T04:41:30.065Z,90.81
2022-10-22T04:43:57.318Z,90.69
2022-10-22T04:46:25.958Z,90.07
2022-10-22T04:48:53.044Z,90.84
2022-10-22T04:51:21.957Z,90.30
2022-10-22T04:53:48.970Z,91.38
2022-10-22T04:56:21.488Z,90.79
2022-10-22T04:58:49.151Z,90.41
2022-10-22T05:01:27.551Z,90.65
2022-10-22T05:03:56.385Z,90.78
2022-10-22T05:06:23.511Z,90.48
2022-10-22T05:08:55.685Z,90.22
2022-10-22T05:11:28.768Z,90.34
2022-10-22T05:13:56.963Z,90.79
2022-10-22T05:16:23.669Z,90.25
2022-10-22T05:18:50.799Z,90.60
2022-10-22T05:21:19.778Z,90.24
2022-10-22T05:23:48.819Z,90.80
2022-10-22T05:26:20.776Z,90.17
2022-10-22T05:28:48.634Z,90.47
2022-10-22T05:31:15.927Z,91.02
2022-10-22T05:33:43.308Z,90.22
2022-10-22T05:36:13.336Z,89.96
2022-10-22T05:38:39.855Z,90.60
2022-10-22T05:41:12.475Z,90.03
2022-10-22T05:43:39.146Z,90.41
2022-10-22T05:46:08.644Z,90.36
2022-10-22T05:48:35.660Z,89.62
2022-10-22T05:51:07.932Z,90.15
2022-10-22T05:53:35.616Z,89.84
2022-10-22T05:56:11.142Z,90.41
2022-10-22T05:58:37.604Z,90.54
2022-10-22T06:01:24.283Z,90.49
2022-10-22T06:03:53.619Z,90.50
2022-10-22T06:06:30.694Z,90.40
2022-10-22T06:09:01.286Z,90.36
2022-10-22T06:11:29.910Z,90.17
2022-10-22T06:13:59.087Z,90.15
2022-10-22T06:16:25.559Z,90.46
2022-10-22T06:18:51.907Z,90.43
2022-10-22T06:21:18.277Z,89.91
2022-10-22T06:23:44.616Z,90.70
2022-10-22T06:26:11.636Z,90.24
2022-10-22T06:28:38.644Z,90.52
2022-10-22T06:31:05.539Z,90.68
2022-10-22T06:33:34.227Z,90.19
2022-10-22T06:36:08.603Z,90.35
2022-10-22T06:38:35.197Z,90.42
2022-10-22T06:41:20.756Z,90.35
2022-10-22T06:43:47.816Z,90.61
2022-10-22T06:46:19.843Z,90.24
2022-10-22T06:48:55.875Z,89.83
2022-10-22T06:51:22.355Z,89.50
2022-10-22T06:53:49.579Z,90.27
2022-10-22T06:56:19.054Z,89.66
2022-10-22T06:58:49.768Z,89.79
2022-10-22T07:01:18.898Z,89.76
2022-10-22T07:03:45.696Z,90.00
2022-10-22T07:06:14.264Z,90.03
2022-10-22T07:08:41.839Z,89.79
2022-10-22T07:11:20.412Z,89.95
2022-10-22T07:13:47.991Z,89.34
2022-10-22T07:16:15.480Z,89.59
2022-10-22T07:18:43.745Z,89.56
2022-10-22T07:21:12.260Z,89.69
2022-10-22T07:23:39.580Z,89.46
2022-10-22T07:26:08.417Z,89.45
2022-10-22T07:28:37.933Z,89.59
2022-10-22T07:31:04.756Z,89.06
2022-10-22T07:33:31.169Z,88.76
2022-10-22T07:36:02.631Z,89.00
2022-10-22T07:38:29.395Z,89.26
2022-10-22T07:40:56.143Z,89.21
2022-10-22T07:43:23.106Z,88.87
2022-10-22T07:45:49.594Z,88.31
2022-10-22T07:48:16.974Z,89.60
2022-10-22T07:53:10.746Z,88.29
2022-10-22T07:55:37.707Z,88.81
2022-10-22T07:58:04.291Z,88.53
2022-10-22T08:00:30.681Z,89.05
2022-10-22T08:02:57.082Z,88.54
2022-10-22T08:05:23.625Z,88.21
2022-10-22T08:07:50.114Z,88.63
2022-10-22T08:10:16.590Z,88.39
2022-10-22T08:12:43.443Z,88.62
2022-10-22T08:15:29.776Z,88.15
2022-10-22T08:20:56.692Z,88.32
2022-10-22T08:24:29.731Z,88.44
2022-10-22T08:27:12.407Z,87.83
2022-10-22T08:37:17.968Z,87.98
2022-10-22T08:43:42.844Z,87.64
2022-10-22T08:54:22.000Z,87.38
2022-10-22T08:57:23.991Z,87.35
2022-10-22T09:00:04.576Z,87.10
2022-10-22T09:03:23.056Z,86.93
2022-10-22T09:06:28.816Z,87.49
2022-10-22T09:12:20.302Z,87.47
2022-10-22T09:14:47.122Z,86.25
2022-10-22T09:17:38.345Z,86.84
2022-10-22T09:20:23.729Z,86.37
2022-10-22T09:22:56.702Z,86.45
2022-10-22T09:25:28.366Z,85.44
2022-10-22T09:27:58.751Z,84.84
2022-10-22T09:30:29.683Z,86.21
2022-10-22T09:33:08.029Z,84.76
2022-10-22T09:35:46.693Z,84.44
2022-10-22T09:38:15.810Z,84.34
2022-10-22T09:40:54.459Z,84.33
2022-10-22T09:43:20.922Z,83.50
2022-10-22T09:45:48.320Z,83.31
2022-10-22T09:48:14.712Z,83.83
2022-10-22T09:50:44.747Z,82.69
2022-10-22T09:53:26.999Z,83.17
2022-10-22T09:55:57.144Z,82.10
2022-10-22T09:58:42.296Z,83.04
2022-10-22T10:01:25.132Z,81.56
2022-10-22T10:04:42.978Z,81.83
2022-10-22T10:25:27.429Z,78.90
2022-10-22T10:32:14.994Z,79.24
2022-10-22T10:35:39.455Z,78.86
2022-10-22T10:39:15.244Z,78.29
2022-10-22T10:42:45.254Z,79.29
2022-10-22T10:45:37.581Z,77.68
2022-10-22T10:48:58.059Z,78.29
2022-10-22T10:59:15.127Z,80.42
2022-10-22T11:02:19.256Z,79.76
2022-10-22T11:12:43.016Z,74.97
2022-10-22T11:18:45.595Z,73.93
2022-10-22T11:22:01.887Z,75.38
2022-10-22T11:24:57.199Z,74.97
2022-10-22T11:27:57.512Z,73.00
2022-10-22T11:31:22.391Z,73.26
2022-10-22T11:34:33.099Z,72.41
2022-10-22T11:37:10.265Z,73.55
2022-10-22T11:39:48.484Z,72.67
2022-10-22T11:42:44.295Z,73.15
2022-10-22T11:45:16.874Z,71.91
2022-10-22T11:48:21.608Z,71.79
2022-10-22T11:50:54.865Z,70.63
2022-10-22T12:00:36.442Z,68.70
2022-10-22T12:03:16.128Z,69.56
2022-10-22T12:05:43.998Z,69.46
2022-10-22T12:08:14.781Z,68.70
2022-10-22T12:10:55.665Z,68.47
2022-10-22T12:13:25.815Z,67.92
2022-10-22T12:15:56.652Z,67.94
2022-10-22T12:18:25.961Z,66.76
2022-10-22T12:20:55.453Z,66.42
2022-10-22T12:23:29.390Z,66.55
2022-10-22T12:25:55.823Z,67.04
2022-10-22T12:28:22.639Z,66.84
2022-10-22T12:30:49.024Z,66.70
2022-10-22T12:33:23.086Z,66.31
2022-10-22T12:35:53.980Z,65.69
2022-10-22T12:38:23.022Z,65.60
2022-10-22T12:40:51.229Z,66.16
2022-10-22T12:43:23.784Z,65.56
2022-10-22T12:45:51.261Z,65.54
2022-10-22T12:48:22.420Z,66.25
2022-10-22T12:50:53.072Z,65.58
2022-10-22T12:53:41.334Z,65.69
2022-10-22T12:56:13.307Z,64.74
2022-10-22T12:58:43.081Z,64.92
2022-10-22T13:01:12.365Z,64.59
2022-10-22T13:03:50.426Z,64.40
2022-10-22T13:06:19.787Z,64.63
2022-10-22T13:08:58.717Z,63.90
2022-10-22T13:12:02.180Z,64.53
2022-10-22T13:14:34.572Z,63.59
2022-10-22T13:17:11.078Z,64.13
2022-10-22T13:19:40.357Z,65.41
2022-10-22T13:22:30.986Z,65.75
2022-10-22T13:25:03.516Z,65.28
2022-10-22T13:27:30.969Z,66.80
2022-10-22T13:30:01.047Z,67.21
2022-10-22T13:32:30.289Z,67.20
2022-10-22T13:34:59.672Z,67.49
2022-10-22T13:37:27.850Z,67.87
2022-10-22T13:39:54.257Z,66.59
2022-10-22T13:42:20.632Z,65.76
2022-10-22T13:44:47.127Z,64.48
2022-10-22T13:47:25.531Z,63.81
2022-10-22T13:49:54.126Z,64.25
2022-10-22T13:52:44.899Z,63.88
2022-10-22T13:55:15.963Z,64.52
2022-10-22T13:57:42.416Z,64.27
2022-10-22T14:00:12.677Z,64.88
2022-10-22T14:02:40.306Z,65.43
2022-10-22T14:05:09.431Z,64.50
2022-10-22T14:07:37.390Z,65.68
2022-10-22T14:10:13.675Z,64.96
2022-10-22T14:12:40.030Z,64.81
2022-10-22T14:15:07.130Z,65.73
2022-10-22T14:17:33.559Z,65.15
2022-10-22T14:20:00.404Z,65.74
2022-10-22T14:22:28.261Z,65.59
2022-10-22T14:24:55.149Z,65.72
2022-10-22T14:27:21.583Z,65.47
2022-10-22T14:29:47.970Z,65.36
2022-10-22T14:32:19.076Z,64.91
2022-10-22T14:34:46.835Z,65.27
2022-10-22T14:37:19.233Z,64.48
2022-10-22T14:39:47.238Z,64.50
2022-10-22T14:42:14.477Z,65.46
2022-10-22T14:44:41.085Z,65.20
2022-10-22T14:47:07.511Z,64.39
2022-10-22T14:49:33.992Z,65.14
2022-10-22T14:52:00.591Z,65.02
2022-10-22T14:54:26.938Z,65.77
2022-10-22T14:56:53.325Z,64.95
2022-10-22T14:59:19.770Z,65.81
2022-10-22T15:01:46.127Z,65.06
2022-10-22T15:04:12.523Z,65.11
2022-10-22T15:06:39.187Z,65.23
2022-10-22T15:09:05.643Z,64.18
2022-10-22T15:11:32.111Z,65.64
2022-10-22T15:13:58.487Z,64.36
2022-10-22T15:16:24.930Z,64.78
2022-10-22T15:18:53.002Z,65.06
2022-10-22T15:21:21.617Z,64.77
2022-10-22T15:23:48.488Z,65.39
2022-10-22T15:26:15.144Z,63.95
2022-10-22T15:28:42.280Z,63.79
2022-10-22T15:31:12.568Z,64.68
2022-10-22T15:33:41.551Z,65.39
2022-10-22T15:36:15.887Z,64.65
2022-10-22T15:38:42.302Z,65.72
2022-10-22T15:41:11.850Z,65.22
2022-10-22T15:43:38.240Z,64.53
2022-10-22T15:46:19.199Z,65.78
2022-10-22T15:48:45.978Z,66.18
2022-10-22T15:51:15.550Z,66.18
2022-10-22T15:53:42.407Z,67.04
2022-10-22T15:56:09.736Z,66.16
2022-10-22T15:58:36.163Z,66.96
2022-10-22T16:01:07.607Z,68.14
2022-10-22T16:03:34.559Z,67.59
2022-10-22T16:06:01.957Z,67.28
2022-10-22T16:08:32.434Z,67.23
2022-10-22T16:10:59.270Z,67.94
2022-10-22T16:13:26.589Z,68.43
2022-10-22T16:15:53.495Z,68.68
2022-10-22T16:18:20.432Z,68.63
2022-10-22T16:20:47.384Z,68.91
2022-10-22T16:23:15.495Z,69.07
2022-10-22T16:25:42.603Z,68.23
2022-10-22T16:28:10.808Z,68.50
2022-10-22T16:30:38.106Z,69.70
2022-10-22T16:33:06.676Z,68.92
2022-10-22T16:35:34.483Z,69.39
2022-10-22T16:38:00.901Z,68.48
2022-10-22T16:40:29.050Z,68.76
2022-10-22T16:42:55.462Z,69.10
2022-10-22T16:45:21.937Z,69.47
2022-10-22T16:47:48.986Z,69.90
2022-10-22T16:50:15.792Z,69.83
2022-10-22T16:52:42.464Z,70.65
2022-10-22T16:55:09.229Z,70.94
2022-10-22T16:57:36.057Z,70.50
2022-10-22T17:00:04.520Z,70.61
2022-10-22T17:02:30.929Z,70.91
2022-10-22T17:04:57.400Z,72.08
2022-10-22T17:07:23.788Z,71.47
2022-10-22T17:09:51.627Z,71.81
2022-10-22T17:12:18.159Z,71.72
2022-10-22T17:14:44.645Z,71.72
2022-10-22T17:17:11.060Z,72.50
2022-10-22T17:19:38.815Z,72.46
2022-10-22T17:22:05.602Z,71.92
2022-10-22T17:24:32.047Z,73.00
2022-10-22T17:26:58.485Z,72.85
2022-10-22T17:29:25.249Z,72.58
2022-10-22T17:31:52.522Z,72.68
2022-10-22T17:34:18.910Z,72.68
2022-10-22T17:36:45.483Z,72.94
2022-10-22T17:39:17.488Z,73.54
2022-10-22T17:41:43.879Z,73.86
2022-10-22T17:44:16.834Z,73.85
2022-10-22T17:46:43.951Z,74.21
2022-10-22T17:49:18.041Z,74.26
2022-10-22T17:51:44.990Z,74.39
2022-10-22T17:54:12.539Z,74.30
2022-10-22T17:56:40.350Z,74.59
2022-10-22T17:59:08.381Z,74.87
2022-10-22T18:01:36.232Z,75.28
2022-10-22T18:04:07.779Z,75.42
2022-10-22T18:06:34.927Z,75.50
2022-10-22T18:09:04.698Z,75.77
2022-10-22T18:11:32.456Z,75.04
2022-10-22T18:13:58.893Z,76.15
2022-10-22T18:16:26.292Z,75.43
2022-10-22T18:18:55.216Z,76.21
2022-10-22T18:21:23.276Z,76.28
2022-10-22T18:23:50.057Z,76.23
2022-10-22T18:26:19.340Z,76.27
2022-10-22T18:28:51.055Z,76.23
2022-10-22T18:31:20.683Z,76.34
2022-10-22T18:33:48.083Z,76.65
2022-10-22T18:36:18.968Z,76.64
2022-10-22T18:38:50.488Z,76.69
2022-10-22T18:41:17.478Z,76.50
2022-10-22T18:43:43.824Z,77.28
2022-10-22T18:46:10.404Z,77.74
2022-10-22T18:48:36.861Z,77.24
2022-10-22T18:51:14.191Z,77.19
2022-10-22T18:53:40.702Z,77.83
2022-10-22T18:56:09.212Z,77.81
2022-10-22T18:58:42.623Z,77.29
2022-10-22T19:01:10.817Z,77.89
2022-10-22T19:03:37.243Z,77.83
2022-10-22T19:06:04.003Z,77.94
2022-10-22T19:08:30.748Z,78.26
2022-10-22T19:10:57.875Z,77.73
2022-10-22T19:13:25.651Z,77.63
2022-10-22T19:15:52.734Z,78.79
2022-10-22T19:18:19.360Z,78.24
2022-10-22T19:20:49.342Z,78.52
2022-10-22T19:23:19.964Z,78.46
2022-10-22T19:25:47.534Z,78.16
2022-10-22T19:28:13.928Z,78.71
2022-10-22T19:30:44.448Z,78.52
2022-10-22T19:33:10.838Z,78.55
2022-10-22T19:35:37.233Z,78.83
2022-10-22T19:38:03.634Z,79.12
2022-10-22T19:40:30.073Z,79.24
2022-10-22T19:42:57.578Z,79.17
2022-10-22T19:45:23.926Z,79.10
2022-10-22T19:47:50.292Z,79.19
2022-10-22T19:50:16.714Z,79.46
2022-10-22T19:52:43.368Z,79.40
2022-10-22T19:55:10.675Z,79.25
2022-10-22T19:57:38.784Z,79.62
2022-10-22T20:00:05.919Z,79.49
2022-10-22T20:02:32.345Z,79.99
2022-10-22T20:04:58.737Z,80.26
2022-10-22T20:07:25.156Z,80.41
2022-10-22T20:09:51.481Z,79.82
2022-10-22T20:12:17.838Z,79.64
2022-10-22T20:14:44.297Z,80.00
2022-10-22T20:17:10.795Z,80.37
2022-10-22T20:19:37.225Z,79.91
2022-10-22T20:22:03.811Z,80.22
2022-10-22T20:24:30.290Z,80.01
2022-10-22T20:26:57.605Z,80.17
2022-10-22T20:29:23.995Z,79.82
2022-10-22T20:31:50.481Z,80.37
2022-10-22T20:34:17.397Z,80.63
2022-10-22T20:36:43.767Z,80.61
2022-10-22T20:39:13.334Z,80.12
2022-10-22T20:41:40.549Z,80.83
2022-10-22T20:44:11.246Z,80.58
2022-10-22T20:46:37.696Z,80.67
2022-10-22T20:49:15.778Z,80.40
2022-10-22T20:51:42.748Z,80.57
2022-10-22T20:54:09.919Z,81.05
2022-10-22T20:56:38.603Z,80.68
2022-10-22T20:59:05.910Z,80.79
2022-10-22T21:01:41.211Z,80.91
2022-10-22T21:04:08.190Z,81.58
2022-10-22T21:06:37.944Z,80.97
2022-10-22T21:09:06.314Z,80.86
2022-10-22T21:11:33.323Z,81.19
2022-10-22T21:14:00.295Z,81.23
2022-10-22T21:16:26.851Z,81.44
2022-10-22T21:18:53.359Z,81.52
2022-10-22T21:21:20.015Z,81.37
2022-10-22T21:23:46.930Z,82.10
2022-10-22T21:26:13.328Z,81.63
2022-10-22T21:28:39.760Z,81.44
2022-10-22T21:31:10.028Z,82.31
2022-10-22T21:33:38.348Z,82.00
2022-10-22T21:36:06.326Z,82.45
2022-10-22T21:38:33.221Z,81.81
2022-10-22T21:41:04.375Z,82.13
2022-10-22T21:43:30.772Z,82.39
2022-10-22T21:46:22.093Z,82.11
2022-10-22T21:48:56.713Z,82.28
2022-10-22T21:51:24.789Z,81.91
2022-10-22T21:56:33.378Z,82.65
2022-10-22T21:59:00.713Z,82.60
2022-10-22T22:01:27.251Z,82.38
2022-10-22T22:03:53.711Z,82.27
2022-10-22T22:06:22.391Z,82.64
2022-10-22T22:08:50.996Z,82.82
2022-10-22T22:11:20.714Z,82.75
2022-10-22T22:13:53.530Z,83.47
2022-10-22T22:16:27.155Z,82.80
2022-10-22T22:18:56.276Z,82.80
2022-10-22T22:21:24.688Z,82.87
2022-10-22T22:23:51.269Z,83.71
2022-10-22T22:26:25.222Z,83.00
2022-10-22T22:28:55.703Z,83.25
2022-10-22T22:31:25.902Z,83.61
2022-10-22T22:33:58.284Z,82.96
2022-10-22T22:36:24.653Z,83.74
2022-10-22T22:38:57.685Z,83.72
2022-10-22T22:41:24.156Z,83.72
2022-10-22T22:43:50.641Z,84.23
2022-10-22T22:46:17.352Z,84.05
2022-10-22T22:48:43.782Z,83.45
2022-10-22T22:51:10.805Z,83.66
2022-10-22T22:53:37.155Z,83.82
2022-10-22T22:56:10.110Z,84.33
2022-10-22T22:58:38.868Z,83.71
2022-10-22T23:01:16.771Z,84.04
2022-10-22T23:03:45.074Z,83.95
2022-10-22T23:06:12.546Z,83.96
2022-10-22T23:08:39.469Z,84.22
2022-10-22T23:11:12.311Z,84.31
2022-10-22T23:13:40.484Z,84.33
2022-10-22T23:16:18.036Z,84.57
2022-10-22T23:18:46.417Z,85.01
2022-10-22T23:21:15.659Z,84.61
2022-10-22T23:23:52.962Z,84.84
2022-10-22T23:26:25.871Z,84.17
2022-10-22T23:28:52.294Z,84.16
2022-10-22T23:31:21.470Z,84.98
2022-10-22T23:33:48.494Z,84.99
2022-10-22T23:36:15.107Z,84.65
2022-10-22T23:38:42.172Z,84.57
2022-10-22T23:41:08.626Z,85.16
2022-10-22T23:43:38.602Z,84.63
2022-10-22T23:46:06.420Z,85.13
2022-10-22T23:48:33.163Z,84.80
2022-10-22T23:51:06.883Z,84.74
2022-10-22T23:53:33.360Z,85.21
2022-10-22T23:56:05.619Z,85.11
2022-10-22T23:58:32.792Z,84.31
